Time;durP1;ratioP1;P1;durP2;ratioP2;P2;SDS_P1;SDS_P2;PMS_P1;PMS_P2;Temp;Humidity;BMP_temperature;BMP_pressure;BME280_temperature;BME280_humidity;BME280_pressure;Samples;Min_cycle;Max_cycle;Signal;HPM_P1;HPM_P2
2022/04/09 00:00:40;;;;;;;13.90;3.63;;;5.20;99.90;;;;;;2611859;54;20155;-73
2022/04/09 00:03:06;;;;;;;9.57;4.87;;;5.20;99.90;;;;;;2610596;54;20536;-73
2022/04/09 00:05:32;;;;;;;6.53;4.10;;;5.20;99.90;;;;;;2607050;39;20806;-73
2022/04/09 00:07:59;;;;;;;12.00;4.47;;;5.20;99.90;;;;;;2607630;54;20172;-73
2022/04/09 00:10:24;;;;;;;11.60;4.30;;;5.20;99.90;;;;;;2610967;54;20428;-72
2022/04/09 00:12:51;;;;;;;6.90;3.83;;;5.10;99.90;;;;;;2607319;39;20913;-73
2022/04/09 00:15:16;;;;;;;15.53;4.90;;;5.20;99.90;;;;;;2606732;54;20459;-73
2022/04/09 00:17:44;;;;;;;7.87;4.67;;;5.10;99.90;;;;;;2611650;54;20159;-71
2022/04/09 00:20:11;;;;;;;4.47;4.07;;;5.10;99.90;;;;;;2608864;47;20182;-73
2022/04/09 00:22:38;;;;;;;10.83;4.17;;;5.10;99.90;;;;;;2609097;54;20506;-72
2022/04/09 00:25:08;;;;;;;6.20;3.93;;;5.00;99.90;;;;;;2609085;54;20447;-72
2022/04/09 00:27:35;;;;;;;5.50;4.03;;;5.00;99.90;;;;;;2607727;54;20419;-72
2022/04/09 00:30:06;;;;;;;8.83;4.67;;;5.00;99.90;;;;;;2609255;54;20422;-71
2022/04/09 00:32:33;;;;;;;9.73;4.10;;;4.90;99.90;;;;;;2609552;54;20424;-72
2022/04/09 00:34:59;;;;;;;9.20;4.93;;;4.90;99.90;;;;;;2611920;39;20855;-71
2022/04/09 00:37:24;;;;;;;6.43;3.40;;;4.90;99.90;;;;;;2613399;54;20455;-71
2022/04/09 00:39:50;;;;;;;6.00;4.17;;;4.80;99.90;;;;;;2612970;54;20427;-72
2022/04/09 00:42:20;;;;;;;15.57;4.60;;;4.80;99.90;;;;;;2611802;54;20159;-72
2022/04/09 00:44:46;;;;;;;8.10;4.67;;;4.90;99.90;;;;;;2613460;54;21027;-72
2022/04/09 00:47:12;;;;;;;6.63;4.57;;;4.90;99.90;;;;;;2611690;54;20435;-72
2022/04/09 00:49:39;;;;;;;5.63;4.93;;;5.00;99.90;;;;;;2612690;46;20209;-72
2022/04/09 00:52:07;;;;;;;11.57;4.10;;;5.00;99.90;;;;;;2609560;54;20436;-72
2022/04/09 00:54:34;;;;;;;6.67;3.53;;;4.90;99.90;;;;;;2611958;54;20426;-72
2022/04/09 00:57:05;;;;;;;7.77;4.20;;;4.80;99.90;;;;;;2609161;39;21116;-72
2022/04/09 00:59:36;;;;;;;20.33;5.20;;;4.80;99.90;;;;;;2611316;54;20567;-72
2022/04/09 01:02:03;;;;;;;7.83;6.53;;;4.80;99.90;;;;;;2607770;39;20799;-73
2022/04/09 01:04:30;;;;;;;15.27;5.20;;;4.80;99.90;;;;;;2611052;54;20446;-73
2022/04/09 01:06:56;;;;;;;14.40;5.10;;;4.90;99.90;;;;;;2608229;54;20455;-72
2022/04/09 01:09:22;;;;;;;5.30;3.33;;;4.90;99.90;;;;;;2611717;47;20595;-72
2022/04/09 01:11:50;;;;;;;11.23;4.50;;;4.90;99.90;;;;;;2611921;54;20430;-73
2022/04/09 01:14:16;;;;;;;16.53;5.03;;;4.90;99.90;;;;;;2609480;39;20887;-72
2022/04/09 01:16:42;;;;;;;8.50;6.00;;;4.80;99.90;;;;;;2607967;54;20436;-72
2022/04/09 01:19:08;;;;;;;9.73;5.13;;;4.80;99.90;;;;;;2609701;51;21110;-73
2022/04/09 01:21:39;;;;;;;17.10;5.17;;;4.80;99.90;;;;;;2606685;47;20162;-72
2022/04/09 01:24:05;;;;;;;15.43;6.00;;;4.90;99.90;;;;;;2611398;39;20799;-72
2022/04/09 01:26:34;;;;;;;13.23;5.63;;;4.90;99.90;;;;;;2609219;47;20420;-72
2022/04/09 01:29:03;;;;;;;13.60;6.37;;;4.90;99.90;;;;;;2609244;54;20424;-72
2022/04/09 01:31:29;;;;;;;10.97;4.87;;;4.90;99.90;;;;;;2612120;46;20534;-72
2022/04/09 01:33:55;;;;;;;15.00;5.93;;;4.90;99.90;;;;;;2609056;47;20419;-72
2022/04/09 01:36:21;;;;;;;11.00;5.20;;;4.90;99.90;;;;;;2608033;54;20455;-72
2022/04/09 01:38:46;;;;;;;15.20;5.63;;;5.00;99.90;;;;;;2607312;54;20443;-72
2022/04/09 01:41:12;;;;;;;11.43;6.23;;;5.00;99.90;;;;;;2609614;54;20266;-73
2022/04/09 01:43:49;;;;;;;14.77;5.90;;;5.00;99.90;;;;;;2610838;54;20431;-72
2022/04/09 01:46:15;;;;;;;12.40;6.07;;;5.10;99.90;;;;;;2611236;54;20456;-73
2022/04/09 01:48:41;;;;;;;15.70;4.80;;;5.10;99.90;;;;;;2611960;47;20169;-72
2022/04/09 01:51:07;;;;;;;14.07;7.40;;;5.20;99.90;;;;;;2607035;54;20539;-72
2022/04/09 01:53:34;;;;;;;7.90;4.80;;;5.10;99.90;;;;;;2611285;47;20474;-72
2022/04/09 01:56:00;;;;;;;19.13;4.63;;;5.20;99.90;;;;;;2606449;54;20434;-72
2022/04/09 01:58:30;;;;;;;11.33;4.70;;;5.30;99.90;;;;;;2605941;47;20475;-72
2022/04/09 02:00:59;;;;;;;9.40;4.83;;;5.30;99.90;;;;;;2608966;54;20415;-72
2022/04/09 02:03:27;;;;;;;13.57;6.10;;;5.30;99.90;;;;;;2608569;54;21198;-71
2022/04/09 02:05:54;;;;;;;16.33;5.27;;;5.30;99.90;;;;;;2610502;47;20514;-72
2022/04/09 02:08:20;;;;;;;13.70;4.53;;;5.30;99.90;;;;;;2609586;46;20435;-72
2022/04/09 02:10:46;;;;;;;24.43;6.00;;;5.40;99.90;;;;;;2609375;54;20614;-71
2022/04/09 02:13:13;;;;;;;10.27;5.17;;;5.40;99.90;;;;;;2610840;54;20426;-72
2022/04/09 02:15:41;;;;;;;11.67;5.80;;;5.20;99.90;;;;;;2608117;47;20423;-72
2022/04/09 02:18:07;;;;;;;8.83;5.13;;;5.20;99.90;;;;;;2607907;39;20814;-73
2022/04/09 02:20:33;;;;;;;10.20;4.97;;;5.10;99.90;;;;;;2606050;54;20542;-72
2022/04/09 02:22:59;;;;;;;15.47;5.60;;;5.10;99.90;;;;;;2609073;47;20258;-72
2022/04/09 02:25:25;;;;;;;14.97;8.27;;;5.10;99.90;;;;;;2612206;54;20468;-72
2022/04/09 02:27:51;;;;;;;16.23;6.00;;;5.10;99.90;;;;;;2610935;54;20174;-72
2022/04/09 02:30:23;;;;;;;14.60;6.77;;;5.10;99.90;;;;;;2611625;47;20706;-73
2022/04/09 02:32:54;;;;;;;9.23;5.23;;;5.20;99.90;;;;;;2609333;54;20407;-72
2022/04/09 02:35:23;;;;;;;12.33;5.40;;;5.30;99.90;;;;;;2608055;39;20780;-72
2022/04/09 02:37:50;;;;;;;15.87;6.40;;;5.30;99.90;;;;;;2610923;39;20525;-72
2022/04/09 02:40:16;;;;;;;9.30;5.10;;;5.40;99.90;;;;;;2611257;47;20424;-72
2022/04/09 02:42:42;;;;;;;10.37;5.53;;;5.40;99.90;;;;;;2610834;54;20442;-72
2022/04/09 02:45:11;;;;;;;14.03;5.10;;;5.30;99.90;;;;;;2608387;54;20415;-72
2022/04/09 02:47:37;;;;;;;17.40;5.63;;;5.30;99.90;;;;;;2608701;54;20415;-72
2022/04/09 02:50:07;;;;;;;15.70;6.03;;;5.30;99.90;;;;;;2610380;54;20455;-72
2022/04/09 02:52:37;;;;;;;9.23;5.10;;;5.30;99.90;;;;;;2609325;47;21019;-72
2022/04/09 02:55:05;;;;;;;10.23;5.07;;;5.30;99.90;;;;;;2612634;54;20407;-73
2022/04/09 02:57:33;;;;;;;24.77;6.53;;;5.20;99.90;;;;;;2608708;54;20531;-72
2022/04/09 02:59:59;;;;;;;15.00;7.70;;;5.30;99.90;;;;;;2611309;39;20923;-72
2022/04/09 03:02:25;;;;;;;11.00;5.23;;;5.20;99.90;;;;;;2609508;47;20527;-72
2022/04/09 03:04:53;;;;;;;12.53;4.73;;;5.20;99.90;;;;;;2611679;47;20494;-73
2022/04/09 03:07:21;;;;;;;14.93;5.73;;;5.20;99.90;;;;;;2611696;51;20407;-73
2022/04/09 03:09:47;;;;;;;18.00;5.73;;;5.20;99.90;;;;;;2611224;54;20436;-72
2022/04/09 03:12:13;;;;;;;16.87;5.40;;;5.20;99.90;;;;;;2608051;51;20511;-72
2022/04/09 03:14:39;;;;;;;14.53;5.90;;;5.20;99.90;;;;;;2611278;39;20890;-72
2022/04/09 03:17:05;;;;;;;12.80;4.73;;;5.20;99.90;;;;;;2611660;54;20707;-72
2022/04/09 03:19:31;;;;;;;12.43;6.20;;;5.10;99.90;;;;;;2612737;47;20547;-72
2022/04/09 03:21:58;;;;;;;10.67;4.73;;;5.10;99.90;;;;;;2610332;54;20443;-72
2022/04/09 03:24:24;;;;;;;8.27;4.97;;;5.00;99.90;;;;;;2607352;54;20436;-72
2022/04/09 03:26:50;;;;;;;14.97;4.57;;;5.00;99.90;;;;;;2607114;51;20439;-73
2022/04/09 03:29:16;;;;;;;9.40;4.60;;;4.90;99.90;;;;;;2611097;54;20171;-72
2022/04/09 03:31:44;;;;;;;11.73;5.00;;;4.90;99.90;;;;;;2609199;54;20418;-73
2022/04/09 03:34:12;;;;;;;13.30;5.30;;;4.80;99.90;;;;;;2609048;54;20518;-71
2022/04/09 03:36:39;;;;;;;12.10;4.20;;;4.90;99.90;;;;;;2610182;54;20407;-72
2022/04/09 03:39:06;;;;;;;17.93;6.40;;;4.90;99.90;;;;;;2609079;54;20432;-72
2022/04/09 03:41:32;;;;;;;12.13;5.40;;;4.90;99.90;;;;;;2611497;54;20450;-72
2022/04/09 03:44:05;;;;;;;13.97;4.57;;;4.80;99.90;;;;;;2609185;54;20444;-73
2022/04/09 03:46:35;;;;;;;11.97;6.07;;;4.70;99.90;;;;;;2607087;39;20786;-73
2022/04/09 03:49:06;;;;;;;9.90;5.10;;;4.80;99.90;;;;;;2612886;54;20439;-72
2022/04/09 03:51:35;;;;;;;18.60;5.57;;;4.80;99.90;;;;;;2610082;54;20420;-72
2022/04/09 03:54:01;;;;;;;11.77;4.53;;;4.80;99.90;;;;;;2610546;54;20399;-73
2022/04/09 03:56:28;;;;;;;17.47;4.43;;;4.80;99.90;;;;;;2610852;47;20526;-72
2022/04/09 03:58:54;;;;;;;9.73;4.33;;;4.80;99.90;;;;;;2608237;54;20459;-73
2022/04/09 04:01:24;;;;;;;10.53;4.40;;;4.70;99.90;;;;;;2608256;39;20984;-73
2022/04/09 04:03:51;;;;;;;8.47;3.90;;;4.70;99.90;;;;;;2607675;54;20426;-73
2022/04/09 04:06:19;;;;;;;6.97;3.93;;;4.60;99.90;;;;;;2606256;54;20391;-73
2022/04/09 04:08:45;;;;;;;16.13;5.63;;;4.60;99.90;;;;;;2610637;54;20420;-73
2022/04/09 04:11:15;;;;;;;3.83;3.43;;;4.50;99.90;;;;;;2610425;51;20442;-72
2022/04/09 04:13:41;;;;;;;10.73;4.33;;;4.30;99.90;;;;;;2612872;54;20447;-72
2022/04/09 04:16:10;;;;;;;8.50;4.87;;;4.40;99.90;;;;;;2609380;54;20179;-73
2022/04/09 04:18:39;;;;;;;9.10;4.50;;;4.30;99.90;;;;;;2607766;47;20419;-72
2022/04/09 04:21:05;;;;;;;8.30;4.33;;;4.40;99.90;;;;;;2608793;54;20451;-72
2022/04/09 04:23:31;;;;;;;5.87;4.17;;;4.30;99.90;;;;;;2609611;54;20187;-73
2022/04/09 04:26:06;;;;;;;11.50;4.93;;;4.20;99.90;;;;;;2608792;54;20442;-73
2022/04/09 04:28:33;;;;;;;8.10;4.80;;;4.20;99.90;;;;;;2610306;39;20455;-73
2022/04/09 04:30:59;;;;;;;12.03;3.80;;;4.20;99.90;;;;;;2612246;54;20527;-73
2022/04/09 04:33:25;;;;;;;12.60;4.40;;;4.10;99.90;;;;;;2609028;54;21005;-72
2022/04/09 04:35:56;;;;;;;8.10;4.73;;;4.10;99.90;;;;;;2598933;54;21199;-72
2022/04/09 04:38:27;;;;;;;8.40;4.87;;;4.10;99.90;;;;;;2600752;54;20443;-72
2022/04/09 04:40:55;;;;;;;8.87;5.13;;;4.10;99.90;;;;;;2600931;54;20430;-74
2022/04/09 04:43:22;;;;;;;12.27;4.33;;;4.20;99.90;;;;;;2597272;50;21184;-72
2022/04/09 04:45:48;;;;;;;3.60;3.30;;;4.20;99.90;;;;;;2603252;49;20404;-72
2022/04/09 04:48:16;;;;;;;9.60;4.97;;;4.20;99.90;;;;;;2608679;54;20442;-71
2022/04/09 04:50:42;;;;;;;13.30;5.30;;;4.20;99.90;;;;;;2605974;51;20521;-72
2022/04/09 04:53:11;;;;;;;10.67;3.93;;;4.30;99.90;;;;;;2598191;54;20395;-72
2022/04/09 04:55:42;;;;;;;9.00;4.33;;;4.20;99.90;;;;;;2600876;54;20439;-72
2022/04/09 04:58:09;;;;;;;7.03;4.73;;;4.20;99.90;;;;;;2599706;54;20426;-74
2022/04/09 05:00:41;;;;;;;7.67;5.00;;;4.20;99.90;;;;;;2603491;31;21103;-73
2022/04/09 05:03:12;;;;;;;16.30;4.60;;;4.10;99.90;;;;;;2602202;54;20432;-73
2022/04/09 05:05:50;;;;;;;11.77;6.10;;;4.20;99.90;;;;;;2608163;47;20404;-72
2022/04/09 05:08:17;;;;;;;12.40;5.33;;;4.30;99.90;;;;;;2598423;48;20439;-72
2022/04/09 05:10:43;;;;;;;30.27;6.73;;;4.30;99.90;;;;;;2599080;54;20419;-72
2022/04/09 05:13:10;;;;;;;12.30;6.37;;;4.30;99.90;;;;;;2597813;54;20428;-73
2022/04/09 05:15:38;;;;;;;8.73;4.77;;;4.30;99.90;;;;;;2597134;54;20442;-71
2022/04/09 05:18:04;;;;;;;20.27;6.70;;;4.30;99.90;;;;;;2600413;54;20462;-73
2022/04/09 05:20:31;;;;;;;13.73;5.00;;;4.50;99.90;;;;;;2597486;51;20474;-73
2022/04/09 05:23:02;;;;;;;9.10;5.03;;;4.50;99.90;;;;;;2607914;47;20576;-73
2022/04/09 05:25:31;;;;;;;11.73;4.70;;;4.50;99.90;;;;;;2605078;54;20406;-72
2022/04/09 05:28:04;;;;;;;9.60;4.90;;;4.60;99.90;;;;;;2599007;54;20491;-71
2022/04/09 05:30:34;;;;;;;18.00;8.10;;;4.80;99.90;;;;;;2599444;47;20574;-73
2022/04/09 05:33:01;;;;;;;11.10;4.30;;;4.80;99.90;;;;;;2602521;47;20527;-72
2022/04/09 05:35:28;;;;;;;10.27;4.60;;;5.00;99.90;;;;;;2603986;54;20419;-72
2022/04/09 05:37:55;;;;;;;9.00;5.13;;;5.10;99.90;;;;;;2611040;51;20486;-72
2022/04/09 05:40:24;;;;;;;9.83;4.47;;;5.00;99.90;;;;;;2610936;54;20424;-72
2022/04/09 05:42:53;;;;;;;11.93;4.93;;;5.10;99.90;;;;;;2611195;51;20440;-72
2022/04/09 05:45:20;;;;;;;11.43;3.90;;;5.10;99.90;;;;;;2611716;54;20431;-73
2022/04/09 05:47:48;;;;;;;4.97;3.50;;;5.10;99.90;;;;;;2610361;54;20506;-74
2022/04/09 05:50:18;;;;;;;21.83;4.67;;;5.10;99.90;;;;;;2608871;54;20932;-73
2022/04/09 05:52:44;;;;;;;9.10;4.10;;;5.10;99.90;;;;;;2607078;54;20427;-72
2022/04/09 05:55:12;;;;;;;6.40;3.67;;;5.10;99.90;;;;;;2607791;54;20420;-72
2022/04/09 05:57:40;;;;;;;7.53;4.53;;;5.20;99.90;;;;;;2609830;39;20877;-73
2022/04/09 06:00:09;;;;;;;7.73;5.30;;;5.50;99.90;;;;;;2609741;39;20965;-72
2022/04/09 06:02:41;;;;;;;12.73;4.30;;;5.80;99.90;;;;;;2609665;54;20387;-73
2022/04/09 06:05:14;;;;;;;12.83;5.43;;;5.80;99.90;;;;;;2611437;51;20972;-73
2022/04/09 06:07:43;;;;;;;8.60;4.90;;;5.70;99.90;;;;;;2610191;54;20559;-72
2022/04/09 06:10:11;;;;;;;14.00;3.87;;;5.60;99.90;;;;;;2607127;54;20394;-72
2022/04/09 06:12:37;;;;;;;16.83;4.20;;;5.60;99.90;;;;;;2611147;39;20878;-72
2022/04/09 06:15:11;;;;;;;8.90;3.50;;;5.50;99.90;;;;;;2610632;47;20440;-72
2022/04/09 06:17:41;;;;;;;13.03;4.30;;;5.60;99.90;;;;;;2612204;46;20455;-71
2022/04/09 06:20:08;;;;;;;9.00;3.73;;;5.90;99.90;;;;;;2607834;54;20438;-71
2022/04/09 06:22:34;;;;;;;10.97;4.80;;;6.00;99.90;;;;;;2608927;39;21158;-72
2022/04/09 06:25:01;;;;;;;7.70;3.17;;;5.80;99.90;;;;;;2609670;54;20419;-71
2022/04/09 06:27:28;;;;;;;14.73;4.77;;;5.80;99.90;;;;;;2607713;54;20439;-72
2022/04/09 06:29:54;;;;;;;9.70;4.10;;;5.80;99.90;;;;;;2609920;54;20986;-72
2022/04/09 06:32:20;;;;;;;12.53;4.50;;;5.70;99.90;;;;;;2608162;54;20444;-73
2022/04/09 06:34:46;;;;;;;15.80;4.80;;;5.60;99.90;;;;;;2607839;54;20434;-73
2022/04/09 06:37:19;;;;;;;9.20;3.57;;;5.60;99.90;;;;;;2609582;54;20443;-72
2022/04/09 06:39:44;;;;;;;9.10;5.03;;;6.10;99.90;;;;;;2611544;54;20501;-72
2022/04/09 06:42:10;;;;;;;11.53;4.10;;;6.70;99.90;;;;;;2611845;54;20422;-72
2022/04/09 06:45:00;;;;;;;11.10;4.17;;;6.90;99.90;;;;;;2610843;54;20168;-72
2022/04/09 06:47:40;;;;;;;8.33;4.23;;;7.20;99.90;;;;;;2611250;47;20432;-73
2022/04/09 06:50:09;;;;;;;8.30;5.10;;;7.70;99.90;;;;;;2611909;54;20434;-72
2022/04/09 06:52:36;;;;;;;8.80;4.47;;;7.60;99.90;;;;;;2612168;39;20824;-72
2022/04/09 06:55:10;;;;;;;4.73;4.20;;;7.70;99.90;;;;;;2612239;39;20877;-72
2022/04/09 06:57:39;;;;;;;10.90;4.30;;;7.80;99.90;;;;;;2610795;46;20451;-73
2022/04/09 07:00:11;;;;;;;10.30;5.30;;;7.90;99.90;;;;;;2611192;46;20476;-72
2022/04/09 07:02:37;;;;;;;7.70;5.30;;;8.40;99.90;;;;;;2609297;54;20426;-71
2022/04/09 07:05:03;;;;;;;8.57;4.63;;;8.30;97.90;;;;;;2608830;54;20458;-72
2022/04/09 07:07:29;;;;;;;17.13;5.50;;;8.20;98.00;;;;;;2611140;54;20503;-71
2022/04/09 07:10:11;;;;;;;13.10;4.37;;;8.30;97.10;;;;;;2612764;39;20836;-72
2022/04/09 07:12:38;;;;;;;10.80;4.43;;;8.30;95.80;;;;;;2613450;54;20719;-72
2022/04/09 07:15:04;;;;;;;13.50;4.53;;;8.30;96.00;;;;;;2612295;54;20421;-71
2022/04/09 07:17:31;;;;;;;6.33;4.03;;;8.70;95.00;;;;;;2610879;54;20530;-71
2022/04/09 07:20:02;;;;;;;11.13;5.03;;;9.10;90.60;;;;;;2613097;54;20561;-71
2022/04/09 07:22:27;;;;;;;10.93;4.30;;;9.00;84.20;;;;;;2613543;39;20837;-72
2022/04/09 07:24:55;;;;;;;10.60;4.60;;;8.40;87.60;;;;;;2611569;54;20534;-72
2022/04/09 07:27:21;;;;;;;9.53;6.00;;;8.10;91.10;;;;;;2612517;54;20196;-72
2022/04/09 07:29:47;;;;;;;13.23;4.97;;;8.50;90.40;;;;;;2613502;54;20402;-72
2022/04/09 07:32:13;;;;;;;7.23;4.60;;;8.80;89.00;;;;;;2612701;39;21233;-71
2022/04/09 07:34:39;;;;;;;7.40;3.87;;;9.40;77.10;;;;;;2612882;46;20518;-72
2022/04/09 07:37:05;;;;;;;6.80;3.67;;;9.60;74.90;;;;;;2611507;54;20164;-71
2022/04/09 07:39:31;;;;;;;8.43;3.83;;;9.40;77.60;;;;;;2608915;54;20150;-72
2022/04/09 07:41:56;;;;;;;12.97;4.50;;;8.90;83.90;;;;;;2609460;39;20624;-71
2022/04/09 07:44:23;;;;;;;12.23;3.73;;;9.00;84.30;;;;;;2610026;54;20983;-72
2022/04/09 07:46:52;;;;;;;15.77;5.33;;;9.20;82.40;;;;;;2610475;54;20160;-72
2022/04/09 07:49:18;;;;;;;8.43;5.10;;;9.40;78.40;;;;;;2610413;54;20426;-72
2022/04/09 07:51:43;;;;;;;8.60;4.00;;;9.70;78.50;;;;;;2611848;54;20442;-72
2022/04/09 07:54:10;;;;;;;10.30;4.10;;;9.90;70.40;;;;;;2613465;54;20143;-72
2022/04/09 07:56:35;;;;;;;11.10;5.00;;;10.10;68.80;;;;;;2611465;54;20161;-71
2022/04/09 07:59:01;;;;;;;13.20;5.30;;;10.30;64.90;;;;;;2611420;47;20990;-72
2022/04/09 08:01:27;;;;;;;10.30;4.50;;;9.80;83.40;;;;;;2609745;39;20542;-72
2022/04/09 08:03:53;;;;;;;14.70;5.80;;;9.10;94.70;;;;;;2611770;54;20178;-72
2022/04/09 08:06:19;;;;;;;11.67;4.67;;;8.30;99.90;;;;;;2611120;54;20451;-73
2022/04/09 08:08:45;;;;;;;6.53;5.90;;;7.70;99.90;;;;;;2609099;54;21670;-74
2022/04/09 08:11:11;;;;;;;6.87;4.27;;;7.30;99.90;;;;;;2608475;54;20152;-72
2022/04/09 08:13:37;;;;;;;13.00;5.73;;;7.20;99.90;;;;;;2608475;54;20239;-72
2022/04/09 08:16:03;;;;;;;10.80;4.90;;;7.40;99.90;;;;;;2609069;54;20423;-73
2022/04/09 08:18:29;;;;;;;12.73;5.20;;;7.70;99.90;;;;;;2610685;54;20172;-74
2022/04/09 08:20:54;;;;;;;11.03;4.77;;;7.70;99.90;;;;;;2611234;54;20417;-73
2022/04/09 08:23:20;;;;;;;13.20;5.53;;;8.00;99.90;;;;;;2610319;54;20571;-73
2022/04/09 08:25:46;;;;;;;6.80;4.37;;;8.50;99.90;;;;;;2608002;46;20194;-72
2022/04/09 08:28:12;;;;;;;6.60;4.20;;;8.80;98.00;;;;;;2609739;47;20273;-71
2022/04/09 08:30:41;;;;;;;11.83;4.80;;;9.10;96.20;;;;;;2608919;47;20432;-72
2022/04/09 08:33:07;;;;;;;11.07;5.80;;;9.60;89.30;;;;;;2608704;54;20157;-72
2022/04/09 08:35:33;;;;;;;9.00;5.17;;;9.40;87.50;;;;;;2609838;49;20512;-73
2022/04/09 08:37:59;;;;;;;8.77;4.00;;;8.80;91.40;;;;;;2610943;39;20828;-73
2022/04/09 08:40:26;;;;;;;8.10;5.67;;;8.00;99.90;;;;;;2610570;39;21114;-73
2022/04/09 08:42:54;;;;;;;7.80;4.83;;;7.80;99.90;;;;;;2610514;39;20893;-73
2022/04/09 08:45:20;;;;;;;8.37;6.07;;;7.60;99.90;;;;;;2608374;47;20444;-73
2022/04/09 08:47:47;;;;;;;10.70;6.53;;;7.60;99.90;;;;;;2610153;54;20429;-71
2022/04/09 08:50:14;;;;;;;9.83;5.87;;;8.30;99.90;;;;;;2607952;54;20249;-72
2022/04/09 08:52:42;;;;;;;11.37;5.87;;;9.20;97.90;;;;;;2608830;39;20963;-71
2022/04/09 08:55:11;;;;;;;10.83;5.53;;;9.70;90.90;;;;;;2609788;54;20425;-74
2022/04/09 08:57:37;;;;;;;10.43;5.23;;;9.60;85.80;;;;;;2610236;54;20455;-72
2022/04/09 09:00:13;;;;;;;7.90;4.73;;;9.80;87.30;;;;;;2609489;54;20466;-74
2022/04/09 09:02:57;;;;;;;7.30;5.83;;;10.40;73.90;;;;;;2611806;39;20570;-72
2022/04/09 09:05:34;;;;;;;11.67;5.57;;;10.70;71.60;;;;;;2609616;54;20419;-74
2022/04/09 09:08:00;;;;;;;7.90;4.80;;;11.40;63.40;;;;;;2610910;54;20423;-72
2022/04/09 09:10:27;;;;;;;5.67;3.90;;;12.00;52.30;;;;;;2610304;54;20975;-73
2022/04/09 09:13:06;;;;;;;4.60;4.20;;;11.60;44.20;;;;;;2607603;39;20809;-73
2022/04/09 09:15:55;;;;;;;6.63;4.30;;;11.60;48.90;;;;;;2609340;54;20458;-72
2022/04/09 09:18:23;;;;;;;6.63;3.90;;;11.50;44.40;;;;;;2612261;39;20792;-74
2022/04/09 09:20:57;;;;;;;5.40;4.33;;;11.60;41.80;;;;;;2609188;54;20420;-74
2022/04/09 09:23:31;;;;;;;9.93;3.93;;;11.00;46.10;;;;;;2611047;54;20422;-73
2022/04/09 09:26:00;;;;;;;9.70;4.20;;;10.60;48.70;;;;;;2608468;54;20452;-73
2022/04/09 09:28:34;;;;;;;6.23;4.10;;;10.50;49.50;;;;;;2610430;39;20866;-72
2022/04/09 09:31:02;;;;;;;9.77;3.90;;;10.60;45.70;;;;;;2607597;54;20403;-73
2022/04/09 09:33:28;;;;;;;4.77;2.93;;;10.10;49.20;;;;;;2608504;54;20423;-72
2022/04/09 09:36:01;;;;;;;7.10;2.57;;;9.70;71.70;;;;;;2609852;54;20404;-73
2022/04/09 09:38:31;;;;;;;7.23;2.87;;;9.90;82.70;;;;;;2611216;31;20854;-73
2022/04/09 09:40:58;;;;;;;3.23;2.40;;;9.90;58.80;;;;;;2607242;54;21002;-75
2022/04/09 09:43:25;;;;;;;2.57;2.30;;;9.60;55.40;;;;;;2610842;54;20484;-73
2022/04/09 09:45:53;;;;;;;5.90;2.50;;;9.00;63.30;;;;;;2609118;54;20397;-73
2022/04/09 09:48:25;;;;;;;2.70;2.20;;;8.50;70.90;;;;;;2610024;54;20418;-73
2022/04/09 09:50:54;;;;;;;2.17;2.00;;;8.10;76.60;;;;;;2611409;54;20432;-73
2022/04/09 09:53:31;;;;;;;4.07;2.20;;;7.80;76.20;;;;;;2612493;54;20392;-73
2022/04/09 09:55:58;;;;;;;2.07;1.93;;;7.60;84.30;;;;;;2610422;54;20414;-73
2022/04/09 09:58:26;;;;;;;2.93;2.50;;;7.70;87.80;;;;;;2611551;54;20381;-73
2022/04/09 10:00:53;;;;;;;8.30;2.20;;;7.60;90.00;;;;;;2612285;54;20437;-73
2022/04/09 10:03:19;;;;;;;2.10;2.00;;;7.80;91.00;;;;;;2609690;54;20902;-75
2022/04/09 10:05:48;;;;;;;1.80;1.70;;;8.70;74.20;;;;;;2610008;54;20382;-74
2022/04/09 10:08:13;;;;;;;1.80;1.70;;;9.40;62.60;;;;;;2610441;47;20441;-72
2022/04/09 10:10:43;;;;;;;2.23;1.80;;;9.90;54.70;;;;;;2610518;54;20466;-72
2022/04/09 10:13:10;;;;;;;1.80;1.70;;;10.30;50.00;;;;;;2609903;39;20574;-76
2022/04/09 10:15:39;;;;;;;2.03;1.93;;;10.50;41.90;;;;;;2609734;54;20519;-73
2022/04/09 10:18:07;;;;;;;5.07;2.27;;;10.40;43.20;;;;;;2611423;54;20986;-73
2022/04/09 10:20:34;;;;;;;6.30;3.13;;;10.70;45.80;;;;;;2610961;54;20932;-73
2022/04/09 10:23:02;;;;;;;5.20;2.90;;;11.30;42.70;;;;;;2610717;54;20457;-73
2022/04/09 10:25:30;;;;;;;4.60;3.77;;;11.30;39.30;;;;;;2610915;46;20473;-73
2022/04/09 10:28:00;;;;;;;4.40;3.10;;;11.50;39.60;;;;;;2609837;54;20415;-73
2022/04/09 10:30:28;;;;;;;4.47;3.07;;;11.80;36.70;;;;;;2611339;54;20975;-72
2022/04/09 10:33:00;;;;;;;6.33;4.00;;;11.90;35.30;;;;;;2610242;54;20431;-72
2022/04/09 10:35:45;;;;;;;5.90;3.90;;;12.20;35.80;;;;;;2607005;54;20522;-72
2022/04/09 10:38:11;;;;;;;5.87;4.13;;;12.50;31.20;;;;;;2610584;39;20800;-72
2022/04/09 10:41:02;;;;;;;4.30;3.90;;;12.80;29.60;;;;;;2611139;54;20416;-73
2022/04/09 10:43:28;;;;;;;4.70;3.10;;;12.50;26.20;;;;;;2610656;54;20207;-72
2022/04/09 10:46:00;;;;;;;4.40;3.70;;;12.70;21.70;;;;;;2611416;54;20503;-73
2022/04/09 10:48:31;;;;;;;3.87;3.10;;;12.30;21.10;;;;;;2610486;54;20392;-72
2022/04/09 10:50:57;;;;;;;4.60;3.50;;;12.20;20.80;;;;;;2609819;47;20442;-71
2022/04/09 10:53:26;;;;;;;4.40;3.30;;;11.70;22.20;;;;;;2611029;54;20449;-72
2022/04/09 10:56:14;;;;;;;6.27;3.37;;;11.40;22.60;;;;;;2610034;54;20412;-73
2022/04/09 10:59:05;;;;;;;4.23;3.50;;;11.50;20.90;;;;;;2609823;54;20453;-72
2022/04/09 11:01:46;;;;;;;8.17;4.00;;;11.60;19.70;;;;;;2611212;54;20391;-73
2022/04/09 11:04:31;;;;;;;8.17;3.90;;;11.60;17.30;;;;;;2611051;54;21015;-72
2022/04/09 11:07:03;;;;;;;5.23;3.70;;;11.20;20.70;;;;;;2610296;39;20673;-72
2022/04/09 11:09:44;;;;;;;3.50;3.10;;;11.10;23.00;;;;;;2606109;54;20455;-72
2022/04/09 11:12:11;;;;;;;2.20;2.10;;;9.90;33.50;;;;;;2609924;47;20418;-74
2022/04/09 11:14:51;;;;;;;2.23;2.10;;;8.70;65.20;;;;;;2611460;54;20432;-73
2022/04/09 11:17:22;;;;;;;3.40;1.90;;;5.90;99.90;;;;;;2608675;54;20423;-74
2022/04/09 11:19:49;;;;;;;2.63;2.10;;;6.10;99.90;;;;;;2608631;54;20973;-71
2022/04/09 11:22:15;;;;;;;4.93;2.70;;;;;;;;;;2610062;54;21734;-74
2022/04/09 11:24:42;;;;;;;1.77;1.67;;;5.30;99.90;;;;;;2609656;54;20487;-72
2022/04/09 11:27:08;;;;;;;4.83;1.50;;;5.20;99.90;;;;;;2610998;54;20423;-72
2022/04/09 11:29:35;;;;;;;4.10;1.53;;;4.80;99.90;;;;;;2610050;54;20391;-73
2022/04/09 11:32:02;;;;;;;3.50;1.90;;;4.70;99.90;;;;;;2607765;39;20802;-73
2022/04/09 11:34:45;;;;;;;1.43;1.33;;;4.50;99.90;;;;;;2611073;54;20420;-73
2022/04/09 11:37:11;;;;;;;2.03;1.70;;;4.60;99.90;;;;;;2611643;39;20790;-74
2022/04/09 11:39:41;;;;;;;2.23;1.53;;;4.60;99.90;;;;;;2611873;47;20411;-74
2022/04/09 11:42:07;;;;;;;2.80;1.60;;;4.70;99.90;;;;;;2610166;51;20433;-74
2022/04/09 11:44:33;;;;;;;2.67;1.60;;;5.00;99.90;;;;;;2610861;54;20423;-74
2022/04/09 11:47:22;;;;;;;2.83;2.10;;;5.10;99.90;;;;;;2610396;54;20960;-73
2022/04/09 11:49:48;;;;;;;2.83;1.93;;;5.50;99.90;;;;;;2609854;54;20152;-74
2022/04/09 11:52:28;;;;;;;5.70;2.50;;;5.90;99.90;;;;;;2610208;54;20412;-74
2022/04/09 11:54:54;;;;;;;6.57;1.90;;;6.50;99.90;;;;;;2611836;54;20424;-74
2022/04/09 11:57:21;;;;;;;3.30;2.20;;;7.40;99.90;;;;;;2611587;39;20842;-74
2022/04/09 11:59:53;;;;;;;7.33;2.03;;;8.30;99.90;;;;;;2610909;54;20460;-75
2022/04/09 12:02:27;;;;;;;2.60;1.73;;;8.90;99.90;;;;;;2610094;54;20573;-74
2022/04/09 12:04:54;;;;;;;6.93;1.63;;;9.30;99.90;;;;;;2610843;54;20413;-73
2022/04/09 12:07:21;;;;;;;7.10;2.07;;;9.70;99.90;;;;;;2610778;54;20464;-74
2022/04/09 12:09:47;;;;;;;3.10;1.57;;;9.90;99.90;;;;;;2609480;54;20415;-74
2022/04/09 12:12:16;;;;;;;6.93;2.00;;;10.10;99.90;;;;;;2610891;54;20423;-72
2022/04/09 12:14:55;;;;;;;1.90;1.43;;;10.20;99.90;;;;;;2610950;54;20388;-74
2022/04/09 12:17:29;;;;;;;2.70;2.07;;;10.60;99.90;;;;;;2609854;54;20430;-73
2022/04/09 12:19:55;;;;;;;1.70;1.60;;;10.60;99.90;;;;;;2608941;47;20431;-74
2022/04/09 12:22:23;;;;;;;3.63;2.30;;;10.70;99.90;;;;;;2611477;54;20428;-74
2022/04/09 12:24:56;;;;;;;1.97;1.77;;;10.90;99.90;;;;;;2609595;54;20154;-73
2022/04/09 12:27:44;;;;;;;1.97;1.87;;;11.30;93.70;;;;;;2611333;54;20391;-73
2022/04/09 12:30:11;;;;;;;2.27;2.07;;;11.50;71.40;;;;;;2610805;54;20427;-73
2022/04/09 12:32:39;;;;;;;2.03;1.37;;;11.60;71.70;;;;;;2610230;54;20408;-73
2022/04/09 12:35:12;;;;;;;2.30;1.57;;;11.60;66.10;;;;;;2609784;54;20395;-73
2022/04/09 12:37:50;;;;;;;2.30;2.07;;;11.70;45.40;;;;;;2608800;54;20416;-73
2022/04/09 12:40:18;;;;;;;1.17;1.07;;;12.00;49.50;;;;;;2608428;47;20431;-72
2022/04/09 12:42:46;;;;;;;1.40;1.20;;;12.20;46.70;;;;;;2610372;54;20407;-73
2022/04/09 12:45:12;;;;;;;2.03;1.30;;;12.50;43.40;;;;;;2609751;46;20430;-72
2022/04/09 12:47:38;;;;;;;1.23;1.13;;;12.80;33.00;;;;;;2608270;54;20427;-73
2022/04/09 12:50:05;;;;;;;3.50;1.60;;;12.40;32.70;;;;;;2610467;39;20818;-72
2022/04/09 12:52:31;;;;;;;2.60;1.63;;;12.40;32.30;;;;;;2610339;54;20424;-72
2022/04/09 12:54:57;;;;;;;2.60;1.97;;;12.40;30.40;;;;;;2608784;39;21135;-73
2022/04/09 12:57:22;;;;;;;3.33;1.90;;;11.90;29.50;;;;;;2608813;54;20427;-73